Create Custom Reports and Graphics: Custom Report

Map - Northern Napa County

Map

15 Minute Data

Map - Southern Napa County

Map

15 Minute Data

Northeast Napa County

11 Stations

15 Minute Data | America/Los_Angeles
as of 5/6/26 10:56 AM PDT
Station Date Time Temp (°F) RH (%) Dew Pt (°F) Wind Spd (mph) Wind Dir (°) Wind Gust (mph) Latest Rain (In) Daily Rain (In) Daily Max Temp (°F) Daily Min Temp (°F)
Dollarhide 17B Remote 5/6/26 1045 71.1   11.2 61   21 57.2   2.6 - - - - - 71.1   10.1 55.1   3.0
Dollarhide 18A Remote 5/6/26 1045 67.2   5.9 66   14 55.5   0.2 - - - - - 67.6   6.2 54.5   3.3
Dollarhide 1AS Remote 5/6/26 1045 67.4   7.9 68   11 56.7   3.5 2.0   0.8 E | 101 7.4   3.7 - - 69.4   8.7 55.3   3.4
Angwin 5/6/26 1045 59.9   9.8 69   31 49.8   0.3 4.6   0.2 N | 357 9.2   0.2 0.00 0.00 61.8   11.3 50.0   4.5
Lower Angwin (Pioneer) 5/6/26 1045 61.2   8.4 - - 5.0   2.2 E | 80 9.7   2.7 - - 62.9   9.6 50.9   3.7
Lower Chiles Valley (Brown) 5/6/26 1045 66.1   11.5 64   21 53.6   3.4 3.0   0.4 E | 88 6.9   1.2 0.00 0.00 66.3   10.6 53.1   2.3
Deer Park 5/6/26 1045 65.4   7.9 64   17 53.1   1.3 1.9   2.3 WSW | 240 4.0   5.0 0.00 0.00 66.3   8.1 53.5   2.6
Moss Creek Vineyard/Reservior 5/6/26 1030 64.9   9.5 65   19 53.0   2.1 - - - 0.00 0.00 65.7   8.5 54.6   3.8
Montesol 5/6/26 1045 62.0   7.3 - - - - - 0.00 0.00 62.2   7.3 51.8   4.2
Dollarhide Base 5/6/26 1045 68.1   8.3 67   17 56.6   1.6 3.1   1.4 N | 358 7.5   3.2 0.00 0.00 69.3   9.1 55.4   3.5
Pope Valley (Weeks Lake) 5/6/26 1045 67.0   9.2 59   20 52.3   1.0 1.7   0.8 SE | 135 5.3   2.2 0.00 0.00 68.6   9.4 55.0   4.0
Max     71.1 69 57.2 5.0 - 9.7 0.00 0.00 71.1 55.4
Avg     65.5 65 54.2 3.0 - 7.1 0.00 - - -
Min     59.9 59 49.8 1.7 - 4.0 0.00 0.00 61.8 50.0

Northern & Central Napa County

32 Stations

15 Minute Data | America/Los_Angeles
as of 5/6/26 10:56 AM PDT
Station Date Time Temp (°F) RH (%) Dew Pt (°F) Wind Spd (mph) Wind Dir (°) Wind Gust (mph) Latest Rain (In) Daily Rain (In) Daily Max Temp (°F) Daily Min Temp (°F)
Calistoga-North 5/6/26 1045 66.2   9.1 71   11 56.5   4.9 - - - 0.00 0.00 68.9   10.7 55.0   3.0
Stags Leap Dist (Chimney Rock) 5/6/26 1045 64.3   4.1 74   7 55.9   1.5 0.9   2.8 SW | 219 3.4   5.0 0.00 0.00 64.8   4.0 54.6   1.8
Diamond Mtn (McEachran) 5/6/26 1045 65.2   8.4 69   11 54.7   4.1 - - - - - 65.8   8.6 53.7   2.6
Diamond Mtn (Schramsberg) 5/6/26 1045 65.1   8.7 70   15 55.1   3.3 - - - 0.00 0.00 66.3   9.6 52.5   2.7
Stags Leap Dist (Silverado Vineyards) 5/6/26 1045 63.9   4.5 67   7 52.6   1.6 1.0   2.0 SSE | 167 3.2   4.5 0.00 0.00 64.5   4.5 54.1   2.2
Oak Knoll-East (Ranch 53) 5/6/26 1045 66.1   5.1 63   10 53.2   0.8 1.3   0.6 SE | 144 3.6   2.3 0.00 0.00 66.5   4.1 55.4   2.9
Rutherford-North (Mee Ln) 5/6/26 1045 69.2   9.9 61   14 55.2   4.0 2.5   0.7 SSE | 150 5.9   0.0 0.00 0.00 70.4   9.4 54.4   6.8
Frisinger Napa-NW 5/6/26 1045 66.7   7.0 67   12 55.2   2.3 3.0   1.6 E | 92 6.0   1.6 0.00 0.00 66.7   6.9 55.1   2.2
Napa-North (Ranch 29) 5/6/26 1045 64.4   5.8 66   13 53.0   0.8 1.1   0.5 N | 6 3.5   0.4 0.00 0.00 65.0   6.1 55.0   2.9
St. Helena (NVV Office) 5/6/26 1045 68.2   6.1 - - 1.2   1.1 NNW | 342 3.3   2.8 0.00 0.00 68.9   6.1 56.0   3.2
Crossroads Ranch 5/6/26 1045 65.3   5.4 69   11 54.8   1.2 2.4   0.4 SE | 139 5.8   0.0 0.00 0.00 66.2   6.3 55.6   2.9
Oakville 5/6/26 1045 66.8   6.8 63   11 53.7   2.0 1.0   0.8 NNE | 28 3.9   1.2 0.00 0.00 68.3   8.0 55.4   3.1
OV561-East 5/6/26 1045 64.9   6.4 - - - - - - - 65.6   6.7 55.3   2.6
OV518-West 5/6/26 1045 65.3   6.9 - - - - - - - 66.4   7.2 55.4   3.0
Napa-NW (Ranch 54) 5/6/26 1045 69.4   7.3 58   13 53.8   1.5 0.7   0.5 E | 91 3.7   0.3 0.00 0.00 70.0   7.1 55.5   2.6
Calistoga (Ranch 78) 5/6/26 1045 68.0   9.3 62   18 54.4   2.1 3.2   0.5 NW | 316 6.5   1.1 0.00 0.00 69.0   10.1 55.2   2.6
Yountville-SE (Ranch 85) 5/6/26 1045 64.6   4.7 69   9 54.1   1.3 1.2   1.4 SSE | 149 4.3   1.8 0.00 0.00 65.0   4.2 55.0   2.4
Yountville-South (Ranch 87) 5/6/26 1045 65.1   5.0 68   9 54.3   1.2 1.2   0.7 NE | 35 5.3   0.1 0.00 0.00 65.4   4.4 55.2   2.8
Rutherford Hill Estate 5/6/26 1045 66.6   9.5 67   29 55.2   0.6 2.4   1.1 SSW | 209 6.4   1.5 0.00 0.00 67.8   10.1 54.4   3.3
Rutherford (STS) 5/6/26 1045 71.0   10.2 64   15 58.4   3.9 1.2   0.7 SE | 136 3.8   1.5 0.00 0.00 71.2   8.9 55.1   2.8
Borreo (Soda Canyon) 5/6/26 1045 62.9   6.7 70   11 52.9   2.6 1.0   0.8 WSW | 256 2.9   1.7 0.00 0.00 63.3   6.7 52.7   2.4
Oakville-NE (Ranch 88) 5/6/26 1045 67.6   7.3 62   12 54.0   2.3 1.5   1.5 SW | 217 5.3   2.2 0.00 0.00 68.0   7.0 55.6   3.3
Soda Canyon 5/6/26 1045 64.8   5.6 72   8 55.6   2.6 1.9   1.5 SSW | 201 4.3   3.3 0.00 0.00 65.3   5.7 54.1   1.6
Silver Oak OV 5/6/26 1045 66.3   6.4 66   11 54.7   2.0 1.6   0.9 SSW | 208 4.5   0.4 0.00 0.00 67.0   6.5 55.7   3.1
Tiara Fria (East St. Helena) 5/6/26 1045 67.0   7.4 64   9 54.6   3.7 2.3   0.4 SE | 136 5.0   0.9 0.00 0.00 67.2   7.5 56.3   3.4
To Kalon Remote (TKKE) 5/6/26 1045 67.5   7.1 - - - - - - - 68.0   7.0 56.1   3.2
To Kalon 5/6/26 1045 67.0   6.0 64   11 54.3   1.4 1.4   0.3 NNE | 13 5.8   1.5 0.00 0.00 67.8   5.8 55.3   2.9
To Kalon Remote (TKN5) 5/6/26 1045 66.7   6.3 - - - - - - - 68.3   7.5 55.8   2.9
St. Helena-North 5/6/26 1045 68.2   6.3 58   10 53.1   1.6 1.0   0.1 SSE | 162 3.5   0.2 0.00 0.00 70.5   8.1 55.3   2.8
Twomey Calistoga 5/6/26 1045 70.5   11.9 60   15 56.2   5.3 1.8   0.5 NW | 324 6.4   0.2 0.00 0.00 70.6   11.3 55.0   2.6
Wappo Hill Floor 5/6/26 1045 65.7   4.7 69   7 55.2   1.9 1.4   1.5 SE | 132 3.3   4.1 0.00 0.00 66.9   4.8 54.1   3.9
Yountville (Ranch 67) 5/6/26 1045 65.2   5.4 63   10 52.4   1.2 0.9   1.8 E | 80 3.0   3.4 0.00 0.00 65.3   5.3 54.4   2.7
Max     71.0 74 58.4 3.2 - 6.5 0.00 0.00 71.2 56.3
Avg     66.4 66 54.6 1.6 - 4.5 0.00 - - -
Min     62.9 58 52.4 0.7 - 2.9 0.00 0.00 63.3 52.5

Southern Napa County

23 Stations

15 Minute Data | America/Los_Angeles
as of 5/6/26 10:56 AM PDT
Station Date Time Temp (°F) RH (%) Dew Pt (°F) Wind Spd (mph) Wind Dir (°) Wind Gust (mph) Latest Rain (In) Daily Rain (In) Daily Max Temp (°F) Daily Min Temp (°F)
Carneros (Milton Rd) 5/6/26 1045 66.7   5.1 63   10 53.7   0.7 - - - 0.00 0.00 67.8   5.7 54.8   2.1
Carneros Lower (Ranch 81) 5/6/26 1045 64.8   5.6 68   16 54.2   0.2 2.6   1.1 SSE | 160 7.2   0.3 0.00 0.01 67.2   7.9 54.7   2.7
Carneros Upper (Ranch 81) 5/6/26 1045 65.8   5.7 64   11 53.3   1.0 2.4   4.1 SSW | 205 6.8   4.4 - - 66.2   6.1 53.8   2.4
Carneros (Mitsuko) 5/6/26 1045 66.9   5.6 - - - - - - - 68.1   6.3 54.4   1.9
Mount George (Napa East) 5/6/26 1045 65.7   7.1 71   10 56.1   3.3 2.1   0.5 ENE | 73 4.3   0.7 0.00 0.00 65.8   6.3 55.6   2.1
Napa-East (Palmaz 300') 5/6/26 1045 65.2   7.2 64   16 53.0   0.9 0.8   0.1 W | 270 2.8   0.2 0.00 0.00 65.6   7.4 54.2   2.4
Napa-East (Palmaz 1200') 5/6/26 1045 59.5   7.1 79   12 52.9   3.9 2.7   0.9 NW | 309 6.6   2.3 - - 59.8   7.2 51.5   2.6
Napa-East (Palmaz 1400') 5/6/26 1045 61.9   10.0 76   24 54.1   2.3 3.3   1.5 SW | 230 5.7   0.7 0.00 0.00 62.7   10.2 51.1   3.2
Dealy Lane (Ranch 80) 5/6/26 1045 66.7   6.6 64   6 54.3   3.9 2.5   0.6 SE | 141 6.4   0.1 0.00 0.00 67.7   7.2 55.0   2.7
Suscol Mtn (Ranch 93) 5/6/26 1045 62.7   8.9 70   30 52.7   0.9 4.5   0.0 W | 276 9.2   1.5 0.00 0.00 66.9   10.3 51.4   2.2
Carneros (Saintsbury) 5/6/26 1045 65.4   4.9 65   9 53.4   1.1 4.4   0.2 SE | 137 8.5   0.2 0.00 0.00 66.4   5.3 53.7   5.0
Sugarloaf West 5/6/26 1045 64.3   5.4 71   8 54.6   2.3 4.2   2.5 SSW | 213 8.0   2.9 0.00 0.00 65.2   6.1 54.2   1.4
Suscol Upper (Ranch 92) 5/6/26 1045 63.9   8.6 69   18 53.5   2.2 2.7   1.9 SSW | 198 7.1   2.5 0.00 0.00 65.0   9.5 52.0   2.2
Stanly (Ranch 45) 5/6/26 1045 66.4   7.0 63   10 53.7   2.7 4.5   0.1 SSE | 157 8.9   0.8 0.00 0.00 66.8   7.1 53.8   4.0
Suscol Lower (Ranch 35) 5/6/26 1045 65.6   5.6 62   11 52.3   0.8 3.7   1.7 SW | 223 8.8   4.2 0.00 0.00 66.7   6.7 53.6   1.7
Napa-South (Toyon Farms) 5/6/26 1045 65.4   5.2 74   7 56.8   2.6 2.8   2.8 S | 183 7.3   6.7 0.00 0.00 65.9   5.2 54.4   2.2
Toyon Remote 1 5/6/26 1045 69.6   8.1 - - - - - - - 70.4   8.3 53.2   1.3
Toyon Remote 2 5/6/26 1045 67.0   6.7 - - - - - - - 68.6   7.7 54.2   1.6
Toyon Remote 3 5/6/26 1045 67.4   6.6 - - - - - - - 68.6   7.3 54.7   2.4
Napa-West Lower (Truchard) 5/6/26 1045 70.9   9.2 54   20 53.5   0.0 - - - - - 71.6   7.9 54.0   3.1
Napa-West Upper (Truchard) 5/6/26 1045 67.2   7.0 61   14 53.4   0.9 1.4   0.5 ESE | 122 6.8   3.3 0.00 0.00 68.6   7.7 54.1   4.0
Mt. Veeder 5/6/26 1045 63.8   8.3 68   17 53.1   1.9 2.4   0.2 ENE | 66 5.4   0.1 0.00 0.00 64.4   8.0 51.0   3.0
Wooden Valley 5/6/26 1045 64.3   8.3 65   17 52.4   1.9 2.0   2.6 W | 272 4.4   5.8 0.00 0.00 65.0   8.4 54.3   4.0
Max     70.9 79 56.8 4.5 - 9.2 0.00 0.01 71.6 55.6
Avg     65.5 67 53.7 2.9 - 6.7 0.00 - - -
Min     59.5 54 52.3 0.8 - 2.8 0.00 0.00 59.8 51.0